createdAt,value
2023-10-14T00:02:06.823Z,99693.00
2023-10-14T00:04:34.318Z,99694.16
2023-10-14T00:07:07.356Z,99700.22
2023-10-14T00:09:35.481Z,99700.28
2023-10-14T00:12:05.437Z,99705.94
2023-10-14T00:14:33.177Z,99700.94
2023-10-14T00:17:00.379Z,99720.00
2023-10-14T00:19:28.164Z,99720.81
2023-10-14T00:21:55.031Z,99727.53
2023-10-14T00:24:28.126Z,99735.00
2023-10-14T00:26:55.910Z,99755.97
2023-10-14T00:29:23.947Z,99761.09
2023-10-14T00:31:52.711Z,99765.16
2023-10-14T00:34:24.418Z,99761.88
2023-10-14T00:36:51.837Z,99767.09
2023-10-14T00:39:18.589Z,99766.53
2023-10-14T00:41:53.880Z,99778.88
2023-10-14T00:44:22.683Z,99782.38
2023-10-14T00:46:52.121Z,99786.00
2023-10-14T00:49:24.092Z,99782.00
2023-10-14T00:52:00.499Z,99767.56
2023-10-14T00:54:35.021Z,99779.03
2023-10-14T00:57:11.282Z,99786.06
2023-10-14T00:59:39.215Z,99788.47
2023-10-14T01:02:10.669Z,99786.81
2023-10-14T01:04:42.138Z,99798.06
2023-10-14T01:07:15.029Z,99807.03
2023-10-14T01:09:54.096Z,99798.06
2023-10-14T01:12:22.415Z,99803.47
2023-10-14T01:14:53.473Z,99805.97
2023-10-14T01:17:33.720Z,99805.81
2023-10-14T01:20:22.489Z,99793.56
2023-10-14T01:22:59.160Z,99799.44
2023-10-14T01:25:31.251Z,99821.09
2023-10-14T01:28:00.492Z,99832.56
2023-10-14T01:30:27.794Z,99855.91
2023-10-14T01:33:09.629Z,99868.38
2023-10-14T01:35:42.288Z,99869.38
2023-10-14T01:38:09.432Z,99881.44
2023-10-14T01:40:36.074Z,99888.69
2023-10-14T01:43:10.309Z,99893.50
2023-10-14T01:46:02.094Z,99898.19
2023-10-14T01:48:34.897Z,99908.88
2023-10-14T01:51:01.550Z,99910.13
2023-10-14T01:53:37.071Z,99909.69
2023-10-14T01:56:04.763Z,99916.94
2023-10-14T01:58:35.018Z,99930.78
2023-10-14T02:01:10.446Z,99931.59
2023-10-14T02:03:45.590Z,99949.06
2023-10-14T02:06:28.180Z,99947.47
2023-10-14T02:08:59.457Z,99954.13
2023-10-14T02:11:26.454Z,99952.13
2023-10-14T02:13:53.673Z,99957.56
2023-10-14T02:16:26.690Z,99959.38
2023-10-14T02:19:05.187Z,99956.97
2023-10-14T02:21:34.783Z,99971.84
2023-10-14T02:24:01.930Z,99979.25
2023-10-14T02:26:37.305Z,99983.09
2023-10-14T02:29:08.043Z,99996.94
2023-10-14T02:31:38.155Z,100004.53
2023-10-14T02:34:08.668Z,100003.16
2023-10-14T02:36:52.323Z,100009.59
2023-10-14T02:39:27.277Z,100017.25
2023-10-14T02:42:01.500Z,100019.25
2023-10-14T02:44:31.656Z,100019.66
2023-10-14T02:47:04.869Z,100039.53
2023-10-14T02:49:40.991Z,100051.38
2023-10-14T02:52:11.076Z,100062.44
2023-10-14T02:54:44.058Z,100069.88
2023-10-14T02:57:14.620Z,100065.88
2023-10-14T02:59:43.976Z,100076.91
2023-10-14T03:02:11.181Z,100085.13
2023-10-14T03:04:46.536Z,100084.94
2023-10-14T03:07:23.461Z,100089.75
2023-10-14T03:09:51.266Z,100097.97
2023-10-14T03:12:22.390Z,100107.38
2023-10-14T03:14:50.049Z,100116.84
2023-10-14T03:17:22.906Z,100116.84
2023-10-14T03:19:54.538Z,100126.25
2023-10-14T03:22:27.424Z,100133.66
2023-10-14T03:25:06.633Z,100143.28
2023-10-14T03:27:33.908Z,100154.69
2023-10-14T03:30:00.717Z,100162.88
2023-10-14T03:32:33.470Z,100167.28
2023-10-14T03:35:10.422Z,100189.69
2023-10-14T03:37:41.902Z,100179.66
2023-10-14T03:40:28.479Z,100191.47
2023-10-14T03:42:55.933Z,100206.66
2023-10-14T03:45:23.281Z,100206.25
2023-10-14T03:47:53.739Z,100212.03
2023-10-14T03:50:26.690Z,100213.84
2023-10-14T03:52:54.583Z,100219.25
2023-10-14T03:55:26.206Z,100221.63
2023-10-14T03:58:05.818Z,100235.03
2023-10-14T04:00:38.556Z,100235.59
2023-10-14T04:03:13.152Z,100241.38
2023-10-14T04:05:53.717Z,100247.16
2023-10-14T04:08:32.157Z,100256.31
2023-10-14T04:11:14.205Z,100254.69
2023-10-14T04:14:01.110Z,100261.09
2023-10-14T04:16:53.013Z,100263.09
2023-10-14T04:19:29.142Z,100270.03
2023-10-14T04:22:02.397Z,100277.22
2023-10-14T04:24:32.549Z,100276.63
2023-10-14T04:27:19.007Z,100279.78
2023-10-14T04:30:11.662Z,100285.38
2023-10-14T04:32:48.973Z,100297.16
2023-10-14T04:35:20.865Z,100298.94
2023-10-14T04:37:53.219Z,100305.72
2023-10-14T04:40:36.529Z,100319.06
2023-10-14T04:43:13.940Z,100318.22
2023-10-14T04:45:46.868Z,100319.19
2023-10-14T04:48:18.090Z,100325.56
2023-10-14T04:50:48.430Z,100326.13
2023-10-14T04:53:17.913Z,100337.72
2023-10-14T04:55:44.582Z,100331.09
2023-10-14T04:58:11.559Z,100337.47
2023-10-14T05:00:43.617Z,100341.84
2023-10-14T05:03:13.431Z,100347.25
2023-10-14T05:05:53.605Z,100354.59
2023-10-14T05:08:24.786Z,100353.97
2023-10-14T05:10:52.863Z,100357.75
2023-10-14T05:13:28.763Z,100368.34
2023-10-14T05:16:05.102Z,100368.09
2023-10-14T05:18:36.283Z,100378.66
2023-10-14T05:21:21.755Z,100382.41
2023-10-14T05:23:49.517Z,100381.78
2023-10-14T05:26:23.104Z,100385.72
2023-10-14T05:28:49.843Z,100390.28
2023-10-14T05:31:17.626Z,100399.44
2023-10-14T05:33:44.450Z,100417.00
2023-10-14T05:36:11.196Z,100417.34
2023-10-14T05:38:37.822Z,100425.50
2023-10-14T05:41:12.930Z,100438.88
2023-10-14T05:43:39.527Z,100433.84
2023-10-14T05:46:13.771Z,100432.25
2023-10-14T05:48:40.524Z,100452.22
2023-10-14T05:51:07.234Z,100458.38
2023-10-14T05:53:33.888Z,100458.56
2023-10-14T05:56:11.324Z,100469.31
2023-10-14T05:58:39.038Z,100475.84
2023-10-14T06:01:13.136Z,100482.19
2023-10-14T06:03:42.163Z,100479.16
2023-10-14T06:06:11.175Z,100492.16
2023-10-14T06:08:38.550Z,100500.09
2023-10-14T06:11:06.653Z,100510.47
2023-10-14T06:13:34.501Z,100516.69
2023-10-14T06:16:02.305Z,100515.03
2023-10-14T06:18:30.980Z,100521.88
2023-10-14T06:20:59.158Z,100528.50
2023-10-14T06:23:28.731Z,100528.50
2023-10-14T06:25:56.632Z,100539.50
2023-10-14T06:28:23.721Z,100542.56
2023-10-14T06:30:50.902Z,100543.56
2023-10-14T06:33:17.744Z,100547.13
2023-10-14T06:35:44.880Z,100551.97
2023-10-14T06:38:23.746Z,100551.78
2023-10-14T06:41:04.516Z,100564.13
2023-10-14T06:43:34.914Z,100571.25
2023-10-14T06:46:06.186Z,100580.91
2023-10-14T06:48:34.442Z,100582.25
2023-10-14T06:51:04.851Z,100588.84
2023-10-14T06:53:31.475Z,100588.13
2023-10-14T06:56:00.023Z,100599.78
2023-10-14T06:58:29.238Z,100608.41
2023-10-14T07:01:00.563Z,100608.41
2023-10-14T07:03:29.528Z,100612.63
2023-10-14T07:05:56.186Z,100622.19
2023-10-14T07:08:25.381Z,100626.88
2023-10-14T07:10:53.273Z,100631.25
2023-10-14T07:13:22.526Z,100638.22
2023-10-14T07:15:51.277Z,100650.25
2023-10-14T07:18:24.735Z,100645.34
2023-10-14T07:21:01.604Z,100653.41
2023-10-14T07:23:29.477Z,100653.03
2023-10-14T07:25:56.189Z,100648.31
2023-10-14T07:28:22.977Z,100650.72
2023-10-14T07:30:51.275Z,100655.91
2023-10-14T07:33:21.461Z,100661.75
2023-10-14T07:35:48.520Z,100667.56
2023-10-14T07:38:15.266Z,100675.66
2023-10-14T07:40:42.984Z,100672.50
2023-10-14T07:43:12.979Z,100669.28
2023-10-14T07:45:47.969Z,100682.75
2023-10-14T07:48:18.568Z,100683.00
2023-10-14T07:50:49.391Z,100696.28
2023-10-14T07:53:24.737Z,100690.38
2023-10-14T07:55:54.189Z,100698.34
2023-10-14T07:58:25.773Z,100698.97
2023-10-14T08:00:54.401Z,100702.84
2023-10-14T08:03:23.938Z,100710.47
2023-10-14T08:05:55.774Z,100710.91
2023-10-14T08:08:23.675Z,100714.94
2023-10-14T08:10:52.693Z,100716.22
2023-10-14T08:13:22.505Z,100717.47
2023-10-14T08:15:55.193Z,100720.50
2023-10-14T08:18:25.154Z,100731.19
2023-10-14T08:20:55.970Z,100733.03
2023-10-14T08:23:24.168Z,100745.72
2023-10-14T08:25:55.520Z,100745.34
2023-10-14T08:28:24.318Z,100745.00
2023-10-14T08:30:52.443Z,100751.00
2023-10-14T08:33:22.969Z,100742.22
2023-10-14T08:35:51.795Z,100741.03
2023-10-14T08:38:28.749Z,100743.66
2023-10-14T08:40:56.888Z,100751.47
2023-10-14T08:43:27.402Z,100760.72
2023-10-14T08:45:55.574Z,100758.72
2023-10-14T08:48:27.502Z,100754.13
2023-10-14T08:50:58.230Z,100765.19
2023-10-14T08:53:27.924Z,100772.63
2023-10-14T08:55:55.452Z,100767.50
2023-10-14T08:58:23.695Z,100769.75
2023-10-14T09:00:54.792Z,100773.59
2023-10-14T09:03:25.873Z,100773.69
2023-10-14T09:05:53.284Z,100784.56
2023-10-14T09:08:20.987Z,100782.22
2023-10-14T09:10:51.072Z,100790.75
2023-10-14T09:13:21.870Z,100793.97
2023-10-14T09:15:50.946Z,100797.81
2023-10-14T09:18:19.690Z,100788.09
2023-10-14T09:20:55.629Z,100796.97
2023-10-14T09:23:41.337Z,100788.97
2023-10-14T09:26:08.324Z,100801.88
2023-10-14T09:28:36.954Z,100801.34
2023-10-14T09:31:08.997Z,100819.03
2023-10-14T09:33:37.798Z,100809.84
2023-10-14T09:36:13.001Z,100808.72
2023-10-14T09:38:44.239Z,100817.97
2023-10-14T09:41:12.026Z,100814.59
2023-10-14T09:43:49.191Z,100813.47
2023-10-14T09:46:21.508Z,100819.41
2023-10-14T09:48:49.569Z,100822.22
2023-10-14T09:51:17.654Z,100810.41
2023-10-14T09:53:51.454Z,100834.66
2023-10-14T09:56:26.326Z,100831.13
2023-10-14T09:59:02.962Z,100827.75
2023-10-14T10:01:30.563Z,100831.78
2023-10-14T10:04:09.758Z,100828.38
2023-10-14T10:06:51.051Z,100842.66
2023-10-14T10:09:49.304Z,100832.22
2023-10-14T10:12:18.564Z,100841.31
2023-10-14T10:14:46.412Z,100845.59
2023-10-14T10:20:18.283Z,100850.66
2023-10-14T10:22:52.101Z,100853.22
2023-10-14T10:25:22.472Z,100860.44
2023-10-14T10:27:57.677Z,100855.47
2023-10-14T10:30:25.971Z,100860.53
2023-10-14T10:32:53.357Z,100858.16
2023-10-14T10:35:21.739Z,100860.66
2023-10-14T10:37:54.143Z,100861.66
2023-10-14T10:40:28.923Z,100852.44
2023-10-14T10:42:57.701Z,100858.13
2023-10-14T10:45:24.358Z,100862.72
2023-10-14T10:47:55.738Z,100855.31
2023-10-14T10:50:26.582Z,100869.22
2023-10-14T10:53:13.288Z,100867.03
2023-10-14T10:55:42.031Z,100864.25
2023-10-14T10:58:15.538Z,100856.28
2023-10-14T11:00:46.598Z,100863.34
2023-10-14T11:03:17.765Z,100856.72
2023-10-14T11:05:49.011Z,100872.25
2023-10-14T11:08:17.260Z,100872.59
2023-10-14T11:10:45.105Z,100871.59
2023-10-14T11:13:14.524Z,100875.16
2023-10-14T11:15:44.263Z,100881.56
2023-10-14T11:18:20.209Z,100887.16
2023-10-14T11:20:51.223Z,100874.31
2023-10-14T11:23:19.089Z,100875.94
2023-10-14T11:25:48.087Z,100877.63
2023-10-14T11:28:16.370Z,100878.69
2023-10-14T11:30:47.787Z,100878.13
2023-10-14T11:33:19.278Z,100890.06
2023-10-14T11:35:50.736Z,100890.50
2023-10-14T11:38:17.717Z,100884.69
2023-10-14T11:40:46.806Z,100872.28
2023-10-14T11:43:13.494Z,100891.81
2023-10-14T11:45:44.698Z,100915.72
2023-10-14T11:48:37.998Z,100898.41
2023-10-14T11:51:12.589Z,100890.38
2023-10-14T11:53:52.038Z,100900.03
2023-10-14T11:56:18.907Z,100901.56
2023-10-14T11:58:46.638Z,100903.16
2023-10-14T12:01:14.418Z,100921.03
2023-10-14T12:03:41.589Z,100913.56
2023-10-14T12:06:13.161Z,100909.00
2023-10-14T12:08:40.346Z,100905.81
2023-10-14T12:11:10.249Z,100905.44
2023-10-14T12:13:49.282Z,100906.28
2023-10-14T12:16:17.327Z,100893.34
2023-10-14T12:18:47.067Z,100897.13
2023-10-14T12:21:14.502Z,100895.78
2023-10-14T12:23:41.188Z,100897.81
2023-10-14T12:26:08.023Z,100908.56
2023-10-14T12:28:35.318Z,100916.06
2023-10-14T12:31:14.220Z,100946.34
2023-10-14T12:33:43.271Z,100951.25
2023-10-14T12:36:13.093Z,100939.06
2023-10-14T12:38:44.452Z,100948.84
2023-10-14T12:41:14.816Z,100962.69
2023-10-14T12:43:42.210Z,100961.88
2023-10-14T12:46:19.986Z,100964.09
2023-10-14T12:48:49.760Z,100955.94
2023-10-14T12:51:31.834Z,100958.63
2023-10-14T12:54:02.472Z,100953.50
2023-10-14T12:56:29.266Z,100946.44
2023-10-14T12:58:58.934Z,100954.31
2023-10-14T13:01:26.254Z,100958.09
2023-10-14T13:03:54.751Z,100963.72
2023-10-14T13:06:23.929Z,100963.66
2023-10-14T13:09:02.335Z,100960.09
2023-10-14T13:11:32.370Z,100970.88
2023-10-14T13:13:59.627Z,100964.91
2023-10-14T13:16:27.917Z,100969.94
2023-10-14T13:18:58.076Z,100983.13
2023-10-14T13:21:30.528Z,100974.75
2023-10-14T13:23:58.297Z,100972.28
2023-10-14T13:26:26.254Z,100987.25
2023-10-14T13:28:53.655Z,100982.03
2023-10-14T13:31:22.010Z,100985.19
2023-10-14T13:33:48.987Z,100979.97
2023-10-14T13:36:21.642Z,100983.28
2023-10-14T13:38:48.935Z,100992.56
2023-10-14T13:41:17.223Z,100989.19
2023-10-14T13:43:45.052Z,101000.59
2023-10-14T13:46:12.231Z,101009.59
2023-10-14T13:48:39.261Z,101021.28
2023-10-14T13:51:06.601Z,101043.31
2023-10-14T13:53:36.329Z,101056.16
2023-10-14T13:56:06.395Z,101052.09
2023-10-14T13:58:36.572Z,101054.09
2023-10-14T14:01:08.063Z,101055.25
2023-10-14T14:03:35.156Z,101044.97
2023-10-14T14:06:07.262Z,101044.28
2023-10-14T14:08:34.809Z,101050.34
2023-10-14T14:11:05.456Z,101069.81
2023-10-14T14:13:32.730Z,101056.19
2023-10-14T14:16:03.458Z,101062.22
2023-10-14T14:18:30.650Z,101051.13
2023-10-14T14:20:58.474Z,101050.00
2023-10-14T14:23:25.275Z,101045.84
2023-10-14T14:25:52.215Z,101048.22
2023-10-14T14:28:19.414Z,101055.28
2023-10-14T14:30:50.948Z,101055.28
2023-10-14T14:33:18.813Z,101051.25
2023-10-14T14:35:48.756Z,101060.13
2023-10-14T14:38:17.626Z,101057.19
2023-10-14T14:40:46.205Z,101065.28
2023-10-14T14:43:13.350Z,101062.16
2023-10-14T14:45:40.842Z,101067.19
2023-10-14T14:48:08.466Z,101069.16
2023-10-14T14:50:39.196Z,101077.59
2023-10-14T14:53:07.802Z,101082.13
2023-10-14T14:55:42.789Z,101080.16
2023-10-14T14:58:10.393Z,101079.72
2023-10-14T15:00:42.930Z,101087.81
2023-10-14T15:03:13.398Z,101078.97
2023-10-14T15:05:42.634Z,101088.63
2023-10-14T15:08:14.207Z,101078.53
2023-10-14T15:10:46.987Z,101082.50
2023-10-14T15:13:16.152Z,101074.22
2023-10-14T15:15:43.666Z,101079.63
2023-10-14T15:18:12.072Z,101075.22
2023-10-14T15:20:39.378Z,101079.44
2023-10-14T15:23:09.045Z,101086.28
2023-10-14T15:25:39.162Z,101078.53
2023-10-14T15:28:10.063Z,101087.19
2023-10-14T15:30:37.616Z,101093.91
2023-10-14T15:33:08.695Z,101095.06
2023-10-14T15:35:36.217Z,101097.66
2023-10-14T15:38:03.472Z,101101.28
2023-10-14T15:40:33.817Z,101105.72
2023-10-14T15:43:02.033Z,101101.44
2023-10-14T15:45:30.461Z,101112.38
2023-10-14T15:48:01.015Z,101113.06
2023-10-14T15:50:29.471Z,101116.56
2023-10-14T15:52:57.872Z,101119.06
2023-10-14T15:55:28.283Z,101114.88
2023-10-14T15:57:58.528Z,101116.44
2023-10-14T16:00:29.324Z,101117.13
2023-10-14T16:03:11.583Z,101123.66
2023-10-14T16:05:40.263Z,101124.69
2023-10-14T16:08:15.039Z,101132.53
2023-10-14T16:10:45.527Z,101136.13
2023-10-14T16:13:16.395Z,101141.06
2023-10-14T16:15:44.675Z,101156.66
2023-10-14T16:18:13.344Z,101151.97
2023-10-14T16:20:40.789Z,101153.47
2023-10-14T16:23:10.650Z,101158.81
2023-10-14T16:25:39.692Z,101152.16
2023-10-14T16:28:06.668Z,101156.56
2023-10-14T16:30:38.617Z,101161.59
2023-10-14T16:33:08.322Z,101165.69
2023-10-14T16:35:35.636Z,101162.28
2023-10-14T16:38:03.322Z,101169.63
2023-10-14T16:40:30.180Z,101174.63
2023-10-14T16:43:01.634Z,101173.53
2023-10-14T16:45:28.912Z,101175.97
2023-10-14T16:48:02.525Z,101178.53
2023-10-14T16:50:31.983Z,101188.13
2023-10-14T16:52:59.551Z,101199.97
2023-10-14T16:55:27.468Z,101197.22
2023-10-14T16:57:58.909Z,101209.72
2023-10-14T17:00:35.218Z,101212.81
2023-10-14T17:03:03.318Z,101210.69
2023-10-14T17:05:32.199Z,101209.88
2023-10-14T17:08:08.960Z,101212.13
2023-10-14T17:10:36.985Z,101219.28
2023-10-14T17:13:10.164Z,101229.50
2023-10-14T17:15:37.390Z,101230.75
2023-10-14T17:18:07.331Z,101230.44
2023-10-14T17:20:34.884Z,101227.34
2023-10-14T17:23:04.388Z,101232.69
2023-10-14T17:25:33.409Z,101243.88
2023-10-14T17:28:02.518Z,101241.25
2023-10-14T17:30:29.857Z,101247.09
2023-10-14T17:33:04.094Z,101248.53
2023-10-14T17:35:33.220Z,101247.22
2023-10-14T17:38:00.259Z,101256.28
2023-10-14T17:40:31.384Z,101257.41
2023-10-14T17:43:11.928Z,101254.81
2023-10-14T17:45:41.983Z,101261.44
2023-10-14T17:48:08.990Z,101265.16
2023-10-14T17:50:37.361Z,101260.13
2023-10-14T17:53:16.953Z,101273.56
2023-10-14T17:55:47.592Z,101272.09
2023-10-14T17:58:15.229Z,101273.19
2023-10-14T18:00:43.499Z,101275.97
2023-10-14T18:03:17.532Z,101277.91
2023-10-14T18:05:46.876Z,101289.69
2023-10-14T18:08:14.893Z,101278.66
2023-10-14T18:10:42.389Z,101283.19
2023-10-14T18:13:09.665Z,101284.59
2023-10-14T18:15:37.278Z,101281.50
2023-10-14T18:18:07.242Z,101285.88
2023-10-14T18:20:35.561Z,101289.75
2023-10-14T18:23:07.434Z,101285.97
2023-10-14T18:25:44.993Z,101289.03
2023-10-14T18:28:12.919Z,101299.19
2023-10-14T18:30:43.144Z,101298.63
2023-10-14T18:33:12.439Z,101295.81
2023-10-14T18:35:40.811Z,101304.22
2023-10-14T18:38:12.024Z,101300.28
2023-10-14T18:40:40.133Z,101299.75
2023-10-14T18:43:08.420Z,101307.81
2023-10-14T18:45:36.357Z,101311.09
2023-10-14T18:48:13.708Z,101315.84
2023-10-14T18:50:45.057Z,101313.09
2023-10-14T18:53:13.597Z,101321.69
2023-10-14T18:55:50.838Z,101321.03
2023-10-14T18:58:19.232Z,101324.56
2023-10-14T19:00:48.182Z,101323.09
2023-10-14T19:03:15.853Z,101328.72
2023-10-14T19:05:44.912Z,101328.34
2023-10-14T19:08:13.844Z,101337.53
2023-10-14T19:10:48.308Z,101334.41
2023-10-14T19:13:19.486Z,101331.44
2023-10-14T19:15:49.161Z,101337.88
2023-10-14T19:18:20.563Z,101336.25
2023-10-14T19:20:48.147Z,101336.69
2023-10-14T19:23:17.791Z,101339.56
2023-10-14T19:25:49.813Z,101346.53
2023-10-14T19:28:22.752Z,101347.06
2023-10-14T19:31:01.419Z,101349.66
2023-10-14T19:33:28.452Z,101355.19
2023-10-14T19:35:57.642Z,101354.09
2023-10-14T19:38:24.697Z,101355.84
2023-10-14T19:41:12.379Z,101351.81
2023-10-14T19:43:39.104Z,101356.59
2023-10-14T19:46:09.783Z,101354.56
2023-10-14T19:48:37.218Z,101358.56
2023-10-14T19:51:12.809Z,101356.69
2023-10-14T19:53:40.449Z,101355.63
2023-10-14T19:56:12.197Z,101357.16
2023-10-14T19:58:39.206Z,101357.75
2023-10-14T20:01:09.882Z,101360.78
2023-10-14T20:03:38.010Z,101353.56
2023-10-14T20:06:05.869Z,101358.22
2023-10-14T20:08:35.978Z,101362.84
2023-10-14T20:11:03.598Z,101365.84
2023-10-14T20:13:30.396Z,101363.69
2023-10-14T20:15:58.797Z,101367.41
2023-10-14T20:18:26.512Z,101360.84
2023-10-14T20:20:53.264Z,101357.88
2023-10-14T20:23:20.200Z,101368.53
2023-10-14T20:25:53.050Z,101369.47
2023-10-14T20:28:20.725Z,101364.28
2023-10-14T20:30:48.691Z,101367.19
2023-10-14T20:33:21.675Z,101371.78
2023-10-14T20:35:48.680Z,101371.13
2023-10-14T20:38:16.678Z,101374.66
2023-10-14T20:40:47.555Z,101376.56
2023-10-14T20:43:14.925Z,101374.28
2023-10-14T20:45:46.277Z,101371.81
2023-10-14T20:48:15.007Z,101375.50
2023-10-14T20:50:43.628Z,101373.88
2023-10-14T20:53:10.508Z,101372.91
2023-10-14T20:55:40.175Z,101375.50
2023-10-14T20:58:08.537Z,101374.97
2023-10-14T21:00:38.332Z,101376.19
2023-10-14T21:03:09.325Z,101377.28
2023-10-14T21:05:41.591Z,101379.31
2023-10-14T21:08:14.628Z,101381.06
2023-10-14T21:10:46.359Z,101380.28
2023-10-14T21:13:15.031Z,101377.81
2023-10-14T21:15:41.997Z,101380.56
2023-10-14T21:18:09.981Z,101384.06
2023-10-14T21:20:43.318Z,101382.72
2023-10-14T21:23:16.774Z,101383.81
2023-10-14T21:25:43.681Z,101382.31
2023-10-14T21:28:12.813Z,101391.03
2023-10-14T21:30:42.647Z,101385.00
2023-10-14T21:33:09.627Z,101392.09
2023-10-14T21:35:37.793Z,101391.28
2023-10-14T21:38:05.544Z,101389.50
2023-10-14T21:40:33.291Z,101377.53
2023-10-14T21:43:01.053Z,101373.44
2023-10-14T21:45:40.899Z,101383.09
2023-10-14T21:48:09.649Z,101375.50
2023-10-14T21:50:38.373Z,101378.22
2023-10-14T21:53:06.291Z,101366.25
2023-10-14T21:55:36.252Z,101374.16
2023-10-14T21:58:03.947Z,101362.16
2023-10-14T22:00:39.325Z,101361.50
2023-10-14T22:03:08.875Z,101370.19
2023-10-14T22:05:37.340Z,101369.66
2023-10-14T22:08:06.607Z,101365.56
2023-10-14T22:10:33.494Z,101366.50
2023-10-14T22:13:00.561Z,101371.00
2023-10-14T22:15:30.140Z,101359.03
2023-10-14T22:18:01.211Z,101363.66
2023-10-14T22:20:33.869Z,101365.44
2023-10-14T22:23:07.895Z,101373.31
2023-10-14T22:25:35.161Z,101377.66
2023-10-14T22:28:13.268Z,101376.03
2023-10-14T22:30:40.580Z,101385.69
2023-10-14T22:33:08.221Z,101385.69
2023-10-14T22:35:38.362Z,101382.28
2023-10-14T22:38:06.751Z,101374.69
2023-10-14T22:40:35.430Z,101378.03
2023-10-14T22:43:04.165Z,101379.69
2023-10-14T22:45:33.928Z,101389.88
2023-10-14T22:48:01.780Z,101394.78
2023-10-14T22:50:29.476Z,101429.63
2023-10-14T22:52:57.141Z,101451.75
2023-10-14T22:55:26.985Z,101488.50
2023-10-14T22:57:56.824Z,101488.75
2023-10-14T23:00:27.297Z,101492.13
2023-10-14T23:02:55.934Z,101489.00
2023-10-14T23:05:29.409Z,101494.81
2023-10-14T23:08:02.302Z,101499.00
2023-10-14T23:10:32.637Z,101491.50
2023-10-14T23:13:00.905Z,101496.69
2023-10-14T23:15:29.127Z,101488.78
2023-10-14T23:17:58.059Z,101465.00
2023-10-14T23:20:29.793Z,101449.50
2023-10-14T23:22:58.830Z,101448.44
2023-10-14T23:25:27.437Z,101453.34
2023-10-14T23:27:55.800Z,101440.72
2023-10-14T23:30:23.943Z,101432.69
2023-10-14T23:32:56.317Z,101431.50
2023-10-14T23:35:24.797Z,101430.28
2023-10-14T23:37:54.733Z,101431.88
2023-10-14T23:40:24.491Z,101423.22
2023-10-14T23:42:59.038Z,101422.28
2023-10-14T23:45:27.246Z,101423.22
2023-10-14T23:47:55.656Z,101413.56
2023-10-14T23:50:24.740Z,101431.38
2023-10-14T23:52:53.462Z,101420.06
2023-10-14T23:55:26.363Z,101425.13
2023-10-14T23:57:57.871Z,101418.06
